sensor_id;sensor_type;location;lat;lon;timestamp;P1;durP1;ratioP1;P2;durP2;ratioP2
14778;SDS011;7481;53.750;10.570;2024-03-17T00:02:51;11.63;;;2.53;;
14778;SDS011;7481;53.750;10.570;2024-03-17T00:07:32;11.40;;;2.63;;
14778;SDS011;7481;53.750;10.570;2024-03-17T00:12:14;11.83;;;2.37;;
14778;SDS011;7481;53.750;10.570;2024-03-17T00:16:55;12.97;;;2.80;;
14778;SDS011;7481;53.750;10.570;2024-03-17T00:21:36;9.93;;;2.20;;
14778;SDS011;7481;53.750;10.570;2024-03-17T00:26:17;7.50;;;2.20;;
14778;SDS011;7481;53.750;10.570;2024-03-17T00:30:58;10.97;;;2.70;;
14778;SDS011;7481;53.750;10.570;2024-03-17T00:35:39;12.47;;;2.93;;
14778;SDS011;7481;53.750;10.570;2024-03-17T00:40:20;6.30;;;2.00;;
14778;SDS011;7481;53.750;10.570;2024-03-17T00:45:01;14.67;;;2.60;;
14778;SDS011;7481;53.750;10.570;2024-03-17T00:49:42;11.87;;;2.83;;
14778;SDS011;7481;53.750;10.570;2024-03-17T00:54:22;16.73;;;3.20;;
14778;SDS011;7481;53.750;10.570;2024-03-17T00:59:02;13.70;;;2.33;;
14778;SDS011;7481;53.750;10.570;2024-03-17T01:03:43;11.67;;;2.20;;
14778;SDS011;7481;53.750;10.570;2024-03-17T01:08:24;8.43;;;2.17;;
14778;SDS011;7481;53.750;10.570;2024-03-17T01:13:08;10.70;;;2.50;;
14778;SDS011;7481;53.750;10.570;2024-03-17T01:17:49;11.77;;;2.40;;
14778;SDS011;7481;53.750;10.570;2024-03-17T01:22:31;9.53;;;2.30;;
14778;SDS011;7481;53.750;10.570;2024-03-17T01:27:11;12.77;;;2.73;;
14778;SDS011;7481;53.750;10.570;2024-03-17T01:31:56;11.07;;;2.20;;
14778;SDS011;7481;53.750;10.570;2024-03-17T01:36:37;7.60;;;2.17;;
14778;SDS011;7481;53.750;10.570;2024-03-17T01:41:18;8.67;;;2.70;;
14778;SDS011;7481;53.750;10.570;2024-03-17T01:46:02;7.60;;;2.30;;
14778;SDS011;7481;53.750;10.570;2024-03-17T01:50:44;12.83;;;2.77;;
14778;SDS011;7481;53.750;10.570;2024-03-17T01:55:28;12.57;;;2.83;;
14778;SDS011;7481;53.750;10.570;2024-03-17T02:00:08;9.73;;;2.30;;
14778;SDS011;7481;53.750;10.570;2024-03-17T02:04:50;11.67;;;2.57;;
14778;SDS011;7481;53.750;10.570;2024-03-17T02:09:30;8.17;;;2.67;;
14778;SDS011;7481;53.750;10.570;2024-03-17T02:14:11;9.53;;;2.47;;
14778;SDS011;7481;53.750;10.570;2024-03-17T02:18:57;9.70;;;2.33;;
14778;SDS011;7481;53.750;10.570;2024-03-17T02:23:39;8.97;;;2.03;;
14778;SDS011;7481;53.750;10.570;2024-03-17T02:28:19;15.33;;;2.90;;
14778;SDS011;7481;53.750;10.570;2024-03-17T02:33:02;11.67;;;2.50;;
14778;SDS011;7481;53.750;10.570;2024-03-17T02:37:49;11.67;;;2.60;;
14778;SDS011;7481;53.750;10.570;2024-03-17T02:42:29;11.00;;;3.20;;
14778;SDS011;7481;53.750;10.570;2024-03-17T02:47:10;9.30;;;2.70;;
14778;SDS011;7481;53.750;10.570;2024-03-17T02:51:50;6.67;;;2.90;;
14778;SDS011;7481;53.750;10.570;2024-03-17T02:56:31;11.13;;;3.03;;
14778;SDS011;7481;53.750;10.570;2024-03-17T03:01:13;9.43;;;2.67;;
14778;SDS011;7481;53.750;10.570;2024-03-17T03:05:54;8.70;;;2.23;;
14778;SDS011;7481;53.750;10.570;2024-03-17T03:10:35;10.57;;;2.67;;
14778;SDS011;7481;53.750;10.570;2024-03-17T03:15:16;10.97;;;2.33;;
14778;SDS011;7481;53.750;10.570;2024-03-17T03:19:56;8.70;;;3.17;;
14778;SDS011;7481;53.750;10.570;2024-03-17T03:24:36;12.43;;;2.40;;
14778;SDS011;7481;53.750;10.570;2024-03-17T03:29:21;8.60;;;2.50;;
14778;SDS011;7481;53.750;10.570;2024-03-17T03:34:07;9.20;;;2.83;;
14778;SDS011;7481;53.750;10.570;2024-03-17T03:38:49;12.90;;;2.90;;
14778;SDS011;7481;53.750;10.570;2024-03-17T03:43:30;6.50;;;2.73;;
14778;SDS011;7481;53.750;10.570;2024-03-17T03:48:12;10.73;;;2.50;;
14778;SDS011;7481;53.750;10.570;2024-03-17T03:52:52;12.83;;;2.60;;
14778;SDS011;7481;53.750;10.570;2024-03-17T03:57:34;6.97;;;1.90;;
14778;SDS011;7481;53.750;10.570;2024-03-17T04:02:18;10.50;;;2.93;;
14778;SDS011;7481;53.750;10.570;2024-03-17T04:06:59;12.43;;;2.83;;
14778;SDS011;7481;53.750;10.570;2024-03-17T04:11:40;5.10;;;2.17;;
14778;SDS011;7481;53.750;10.570;2024-03-17T04:16:21;7.20;;;2.30;;
14778;SDS011;7481;53.750;10.570;2024-03-17T04:21:02;13.00;;;2.47;;
14778;SDS011;7481;53.750;10.570;2024-03-17T04:25:43;12.27;;;3.03;;
14778;SDS011;7481;53.750;10.570;2024-03-17T04:30:23;10.73;;;2.47;;
14778;SDS011;7481;53.750;10.570;2024-03-17T04:35:03;11.57;;;2.10;;
14778;SDS011;7481;53.750;10.570;2024-03-17T04:39:45;12.70;;;2.60;;
14778;SDS011;7481;53.750;10.570;2024-03-17T04:44:25;6.47;;;2.00;;
14778;SDS011;7481;53.750;10.570;2024-03-17T04:49:06;10.80;;;2.30;;
14778;SDS011;7481;53.750;10.570;2024-03-17T04:53:53;9.83;;;2.63;;
14778;SDS011;7481;53.750;10.570;2024-03-17T04:58:33;8.97;;;2.37;;
14778;SDS011;7481;53.750;10.570;2024-03-17T05:03:30;9.93;;;2.50;;
14778;SDS011;7481;53.750;10.570;2024-03-17T05:08:21;11.77;;;2.10;;
14778;SDS011;7481;53.750;10.570;2024-03-17T05:13:01;8.17;;;2.07;;
14778;SDS011;7481;53.750;10.570;2024-03-17T05:17:42;6.80;;;2.10;;
14778;SDS011;7481;53.750;10.570;2024-03-17T05:22:23;8.27;;;1.97;;
14778;SDS011;7481;53.750;10.570;2024-03-17T05:27:04;8.77;;;2.43;;
14778;SDS011;7481;53.750;10.570;2024-03-17T05:31:46;7.27;;;1.90;;
14778;SDS011;7481;53.750;10.570;2024-03-17T05:36:28;10.10;;;2.67;;
14778;SDS011;7481;53.750;10.570;2024-03-17T05:41:08;7.97;;;1.90;;
14778;SDS011;7481;53.750;10.570;2024-03-17T05:45:52;9.13;;;2.33;;
14778;SDS011;7481;53.750;10.570;2024-03-17T05:50:34;12.10;;;2.43;;
14778;SDS011;7481;53.750;10.570;2024-03-17T05:55:14;8.17;;;2.33;;
14778;SDS011;7481;53.750;10.570;2024-03-17T05:59:55;17.73;;;2.97;;
14778;SDS011;7481;53.750;10.570;2024-03-17T06:04:39;15.17;;;2.50;;
14778;SDS011;7481;53.750;10.570;2024-03-17T06:09:20;8.53;;;2.97;;
14778;SDS011;7481;53.750;10.570;2024-03-17T06:14:01;14.17;;;3.53;;
14778;SDS011;7481;53.750;10.570;2024-03-17T06:18:41;5.83;;;1.90;;
14778;SDS011;7481;53.750;10.570;2024-03-17T06:23:22;11.80;;;2.30;;
14778;SDS011;7481;53.750;10.570;2024-03-17T06:28:04;7.47;;;2.47;;
14778;SDS011;7481;53.750;10.570;2024-03-17T06:32:45;12.60;;;3.00;;
14778;SDS011;7481;53.750;10.570;2024-03-17T06:37:26;9.33;;;2.60;;
14778;SDS011;7481;53.750;10.570;2024-03-17T06:42:06;9.53;;;3.53;;
14778;SDS011;7481;53.750;10.570;2024-03-17T06:46:47;8.50;;;2.90;;
14778;SDS011;7481;53.750;10.570;2024-03-17T06:51:29;10.87;;;2.33;;
14778;SDS011;7481;53.750;10.570;2024-03-17T06:56:09;11.53;;;2.77;;
14778;SDS011;7481;53.750;10.570;2024-03-17T07:00:53;10.57;;;2.93;;
14778;SDS011;7481;53.750;10.570;2024-03-17T07:05:34;9.00;;;2.57;;
14778;SDS011;7481;53.750;10.570;2024-03-17T07:10:14;7.43;;;2.10;;
14778;SDS011;7481;53.750;10.570;2024-03-17T07:14:54;18.70;;;3.07;;
14778;SDS011;7481;53.750;10.570;2024-03-17T07:19:35;12.60;;;3.10;;
14778;SDS011;7481;53.750;10.570;2024-03-17T07:24:17;10.73;;;3.63;;
14778;SDS011;7481;53.750;10.570;2024-03-17T07:28:58;13.97;;;4.67;;
14778;SDS011;7481;53.750;10.570;2024-03-17T07:33:39;12.67;;;4.17;;
14778;SDS011;7481;53.750;10.570;2024-03-17T07:38:19;8.07;;;3.17;;
14778;SDS011;7481;53.750;10.570;2024-03-17T07:43:01;10.90;;;2.67;;
14778;SDS011;7481;53.750;10.570;2024-03-17T07:47:42;13.83;;;2.57;;
14778;SDS011;7481;53.750;10.570;2024-03-17T07:52:22;9.83;;;2.90;;
14778;SDS011;7481;53.750;10.570;2024-03-17T07:57:03;7.60;;;2.60;;
14778;SDS011;7481;53.750;10.570;2024-03-17T08:01:43;9.47;;;2.47;;
14778;SDS011;7481;53.750;10.570;2024-03-17T08:06:24;10.00;;;3.00;;
14778;SDS011;7481;53.750;10.570;2024-03-17T08:11:05;8.20;;;2.23;;
14778;SDS011;7481;53.750;10.570;2024-03-17T08:15:46;10.43;;;3.07;;
14778;SDS011;7481;53.750;10.570;2024-03-17T08:20:30;11.53;;;3.17;;
14778;SDS011;7481;53.750;10.570;2024-03-17T08:25:11;6.53;;;2.20;;
14778;SDS011;7481;53.750;10.570;2024-03-17T08:30:16;11.47;;;2.70;;
14778;SDS011;7481;53.750;10.570;2024-03-17T08:34:38;8.90;;;2.50;;
14778;SDS011;7481;53.750;10.570;2024-03-17T08:39:37;8.83;;;2.50;;
14778;SDS011;7481;53.750;10.570;2024-03-17T08:43:59;9.75;;;3.28;;
14778;SDS011;7481;53.750;10.570;2024-03-17T08:48:59;8.73;;;2.42;;
14778;SDS011;7481;53.750;10.570;2024-03-17T08:53:20;7.47;;;2.25;;
14778;SDS011;7481;53.750;10.570;2024-03-17T08:58:20;7.13;;;2.30;;
14778;SDS011;7481;53.750;10.570;2024-03-17T09:02:44;8.20;;;2.33;;
14778;SDS011;7481;53.750;10.570;2024-03-17T09:07:43;4.33;;;1.97;;
14778;SDS011;7481;53.750;10.570;2024-03-17T09:12:05;6.43;;;2.63;;
14778;SDS011;7481;53.750;10.570;2024-03-17T09:17:04;6.73;;;2.53;;
14778;SDS011;7481;53.750;10.570;2024-03-17T09:21:26;8.47;;;2.37;;
14778;SDS011;7481;53.750;10.570;2024-03-17T09:26:31;6.27;;;2.20;;
14778;SDS011;7481;53.750;10.570;2024-03-17T09:30:53;7.83;;;2.37;;
14778;SDS011;7481;53.750;10.570;2024-03-17T09:35:57;7.13;;;2.17;;
14778;SDS011;7481;53.750;10.570;2024-03-17T09:40:22;5.97;;;2.00;;
14778;SDS011;7481;53.750;10.570;2024-03-17T09:45:22;7.53;;;2.53;;
14778;SDS011;7481;53.750;10.570;2024-03-17T09:49:46;6.17;;;2.07;;
14778;SDS011;7481;53.750;10.570;2024-03-17T09:54:55;10.20;;;2.10;;
14778;SDS011;7481;53.750;10.570;2024-03-17T09:59:22;7.57;;;2.50;;
14778;SDS011;7481;53.750;10.570;2024-03-17T10:09:15;8.57;;;2.38;;
14778;SDS011;7481;53.750;10.570;2024-03-17T10:14:16;5.47;;;2.00;;
14778;SDS011;7481;53.750;10.570;2024-03-17T10:18:38;7.03;;;2.25;;
14778;SDS011;7481;53.750;10.570;2024-03-17T10:23:37;3.85;;;1.98;;
14778;SDS011;7481;53.750;10.570;2024-03-17T10:27:59;6.20;;;2.05;;
14778;SDS011;7481;53.750;10.570;2024-03-17T10:32:24;5.10;;;2.10;;
14778;SDS011;7481;53.750;10.570;2024-03-17T10:37:25;4.57;;;1.87;;
14778;SDS011;7481;53.750;10.570;2024-03-17T10:41:46;5.47;;;2.13;;
14778;SDS011;7481;53.750;10.570;2024-03-17T10:46:46;5.77;;;2.03;;
14778;SDS011;7481;53.750;10.570;2024-03-17T10:51:14;7.53;;;2.10;;
14778;SDS011;7481;53.750;10.570;2024-03-17T10:56:16;8.17;;;1.87;;
14778;SDS011;7481;53.750;10.570;2024-03-17T11:00:39;6.97;;;2.57;;
14778;SDS011;7481;53.750;10.570;2024-03-17T11:05:41;6.73;;;2.10;;
14778;SDS011;7481;53.750;10.570;2024-03-17T11:10:03;6.37;;;2.20;;
14778;SDS011;7481;53.750;10.570;2024-03-17T11:19:42;6.17;;;2.30;;
14778;SDS011;7481;53.750;10.570;2024-03-17T11:24:42;5.47;;;1.73;;
14778;SDS011;7481;53.750;10.570;2024-03-17T11:29:06;6.73;;;2.33;;
14778;SDS011;7481;53.750;10.570;2024-03-17T11:38:53;5.23;;;1.80;;
14778;SDS011;7481;53.750;10.570;2024-03-17T11:43:16;6.20;;;2.13;;
14778;SDS011;7481;53.750;10.570;2024-03-17T11:48:15;7.40;;;2.53;;
14778;SDS011;7481;53.750;10.570;2024-03-17T11:52:38;5.23;;;1.73;;
14778;SDS011;7481;53.750;10.570;2024-03-17T11:57:48;4.40;;;1.77;;
14778;SDS011;7481;53.750;10.570;2024-03-17T12:02:20;5.07;;;1.83;;
14778;SDS011;7481;53.750;10.570;2024-03-17T12:07:29;4.97;;;2.03;;
14778;SDS011;7481;53.750;10.570;2024-03-17T12:11:58;5.40;;;1.90;;
14778;SDS011;7481;53.750;10.570;2024-03-17T12:16:59;3.97;;;1.70;;
14778;SDS011;7481;53.750;10.570;2024-03-17T12:21:21;3.53;;;1.60;;
14778;SDS011;7481;53.750;10.570;2024-03-17T12:26:21;4.23;;;1.70;;
14778;SDS011;7481;53.750;10.570;2024-03-17T12:30:42;5.80;;;2.00;;
14778;SDS011;7481;53.750;10.570;2024-03-17T12:35:42;5.90;;;1.70;;
14778;SDS011;7481;53.750;10.570;2024-03-17T12:40:04;3.47;;;1.77;;
14778;SDS011;7481;53.750;10.570;2024-03-17T12:45:09;4.43;;;2.07;;
14778;SDS011;7481;53.750;10.570;2024-03-17T12:49:31;5.33;;;1.80;;
14778;SDS011;7481;53.750;10.570;2024-03-17T12:54:30;2.93;;;1.63;;
14778;SDS011;7481;53.750;10.570;2024-03-17T12:58:52;2.80;;;2.00;;
14778;SDS011;7481;53.750;10.570;2024-03-17T13:03:50;5.63;;;1.67;;
14778;SDS011;7481;53.750;10.570;2024-03-17T13:08:13;5.17;;;1.90;;
14778;SDS011;7481;53.750;10.570;2024-03-17T13:13:30;5.53;;;1.80;;
14778;SDS011;7481;53.750;10.570;2024-03-17T13:17:52;5.97;;;2.10;;
14778;SDS011;7481;53.750;10.570;2024-03-17T13:22:53;3.93;;;1.70;;
14778;SDS011;7481;53.750;10.570;2024-03-17T13:27:18;2.80;;;1.60;;
14778;SDS011;7481;53.750;10.570;2024-03-17T13:32:23;3.37;;;1.80;;
14778;SDS011;7481;53.750;10.570;2024-03-17T13:36:47;3.27;;;1.80;;
14778;SDS011;7481;53.750;10.570;2024-03-17T13:41:47;4.70;;;1.77;;
14778;SDS011;7481;53.750;10.570;2024-03-17T13:46:09;3.90;;;2.00;;
14778;SDS011;7481;53.750;10.570;2024-03-17T13:51:09;10.40;;;5.77;;
14778;SDS011;7481;53.750;10.570;2024-03-17T13:55:31;14.03;;;7.17;;
14778;SDS011;7481;53.750;10.570;2024-03-17T14:00:30;4.83;;;1.90;;
14778;SDS011;7481;53.750;10.570;2024-03-17T14:04:52;5.60;;;2.60;;
14778;SDS011;7481;53.750;10.570;2024-03-17T14:09:52;6.43;;;3.43;;
14778;SDS011;7481;53.750;10.570;2024-03-17T14:14:14;6.13;;;2.17;;
14778;SDS011;7481;53.750;10.570;2024-03-17T14:19:14;6.43;;;1.87;;
14778;SDS011;7481;53.750;10.570;2024-03-17T14:23:36;5.00;;;2.20;;
14778;SDS011;7481;53.750;10.570;2024-03-17T14:28:38;3.87;;;2.10;;
14778;SDS011;7481;53.750;10.570;2024-03-17T14:33:00;4.47;;;1.90;;
14778;SDS011;7481;53.750;10.570;2024-03-17T14:38:00;3.43;;;1.60;;
14778;SDS011;7481;53.750;10.570;2024-03-17T14:42:25;5.70;;;2.10;;
14778;SDS011;7481;53.750;10.570;2024-03-17T14:47:25;6.00;;;1.93;;
14778;SDS011;7481;53.750;10.570;2024-03-17T14:51:47;3.73;;;2.17;;
14778;SDS011;7481;53.750;10.570;2024-03-17T14:56:46;2.87;;;1.70;;
14778;SDS011;7481;53.750;10.570;2024-03-17T15:01:08;3.73;;;1.80;;
14778;SDS011;7481;53.750;10.570;2024-03-17T15:06:14;3.27;;;1.77;;
14778;SDS011;7481;53.750;10.570;2024-03-17T15:10:36;7.70;;;2.23;;
14778;SDS011;7481;53.750;10.570;2024-03-17T15:15:36;4.80;;;2.55;;
14778;SDS011;7481;53.750;10.570;2024-03-17T15:19:58;5.77;;;2.33;;
14778;SDS011;7481;53.750;10.570;2024-03-17T15:24:57;4.90;;;2.03;;
14778;SDS011;7481;53.750;10.570;2024-03-17T15:29:20;6.37;;;3.10;;
14778;SDS011;7481;53.750;10.570;2024-03-17T15:33:42;8.70;;;4.53;;
14778;SDS011;7481;53.750;10.570;2024-03-17T15:38:41;10.67;;;5.17;;
14778;SDS011;7481;53.750;10.570;2024-03-17T15:43:10;9.37;;;3.83;;
14778;SDS011;7481;53.750;10.570;2024-03-17T15:48:09;10.43;;;5.30;;
14778;SDS011;7481;53.750;10.570;2024-03-17T15:52:31;18.33;;;10.67;;
14778;SDS011;7481;53.750;10.570;2024-03-17T15:57:30;5.63;;;3.13;;
14778;SDS011;7481;53.750;10.570;2024-03-17T16:01:52;14.27;;;7.93;;
14778;SDS011;7481;53.750;10.570;2024-03-17T16:06:51;14.03;;;7.20;;
14778;SDS011;7481;53.750;10.570;2024-03-17T16:11:15;5.47;;;3.37;;
14778;SDS011;7481;53.750;10.570;2024-03-17T16:16:15;8.83;;;5.47;;
14778;SDS011;7481;53.750;10.570;2024-03-17T16:25:50;8.60;;;4.03;;
14778;SDS011;7481;53.750;10.570;2024-03-17T16:30:11;2.80;;;2.50;;
14778;SDS011;7481;53.750;10.570;2024-03-17T16:35:11;5.00;;;2.50;;
14778;SDS011;7481;53.750;10.570;2024-03-17T16:39:33;6.47;;;2.77;;
14778;SDS011;7481;53.750;10.570;2024-03-17T16:49:13;3.23;;;2.77;;
14778;SDS011;7481;53.750;10.570;2024-03-17T16:54:17;3.73;;;2.40;;
14778;SDS011;7481;53.750;10.570;2024-03-17T16:58:39;3.87;;;2.40;;
14778;SDS011;7481;53.750;10.570;2024-03-17T17:03:38;4.07;;;2.23;;
14778;SDS011;7481;53.750;10.570;2024-03-17T17:08:00;3.13;;;2.10;;
14778;SDS011;7481;53.750;10.570;2024-03-17T17:12:59;3.80;;;2.30;;
14778;SDS011;7481;53.750;10.570;2024-03-17T17:17:21;9.93;;;6.47;;
14778;SDS011;7481;53.750;10.570;2024-03-17T17:22:25;4.67;;;3.40;;
14778;SDS011;7481;53.750;10.570;2024-03-17T17:26:48;3.67;;;2.60;;
14778;SDS011;7481;53.750;10.570;2024-03-17T17:31:47;5.83;;;3.40;;
14778;SDS011;7481;53.750;10.570;2024-03-17T17:36:09;6.87;;;3.97;;
14778;SDS011;7481;53.750;10.570;2024-03-17T17:41:08;5.87;;;3.37;;
14778;SDS011;7481;53.750;10.570;2024-03-17T17:45:30;6.67;;;3.77;;
14778;SDS011;7481;53.750;10.570;2024-03-17T17:50:29;6.17;;;4.00;;
14778;SDS011;7481;53.750;10.570;2024-03-17T17:54:51;17.93;;;9.40;;
14778;SDS011;7481;53.750;10.570;2024-03-17T17:59:50;3.67;;;2.73;;
14778;SDS011;7481;53.750;10.570;2024-03-17T18:04:33;2.90;;;2.40;;
14778;SDS011;7481;53.750;10.570;2024-03-17T18:09:12;3.90;;;2.80;;
14778;SDS011;7481;53.750;10.570;2024-03-17T18:13:55;3.57;;;2.20;;
14778;SDS011;7481;53.750;10.570;2024-03-17T18:18:36;4.27;;;2.20;;
14778;SDS011;7481;53.750;10.570;2024-03-17T18:23:16;3.23;;;2.20;;
14778;SDS011;7481;53.750;10.570;2024-03-17T18:27:57;5.57;;;2.60;;
14778;SDS011;7481;53.750;10.570;2024-03-17T18:32:40;5.13;;;2.70;;
14778;SDS011;7481;53.750;10.570;2024-03-17T18:37:21;5.27;;;3.23;;
14778;SDS011;7481;53.750;10.570;2024-03-17T18:42:03;5.57;;;3.43;;
14778;SDS011;7481;53.750;10.570;2024-03-17T18:46:46;4.80;;;3.40;;
14778;SDS011;7481;53.750;10.570;2024-03-17T18:51:27;4.50;;;3.80;;
14778;SDS011;7481;53.750;10.570;2024-03-17T18:56:08;4.67;;;3.60;;
14778;SDS011;7481;53.750;10.570;2024-03-17T19:00:52;4.83;;;3.20;;
14778;SDS011;7481;53.750;10.570;2024-03-17T19:05:36;4.53;;;3.90;;
14778;SDS011;7481;53.750;10.570;2024-03-17T19:10:17;20.50;;;11.70;;
14778;SDS011;7481;53.750;10.570;2024-03-17T19:14:58;19.97;;;12.07;;
14778;SDS011;7481;53.750;10.570;2024-03-17T19:19:38;11.47;;;6.90;;
14778;SDS011;7481;53.750;10.570;2024-03-17T19:24:18;11.40;;;7.50;;
14778;SDS011;7481;53.750;10.570;2024-03-17T19:28:59;9.60;;;6.10;;
14778;SDS011;7481;53.750;10.570;2024-03-17T19:33:48;11.60;;;8.00;;
14778;SDS011;7481;53.750;10.570;2024-03-17T19:38:28;7.80;;;5.13;;
14778;SDS011;7481;53.750;10.570;2024-03-17T19:43:09;7.77;;;4.20;;
14778;SDS011;7481;53.750;10.570;2024-03-17T19:47:50;6.27;;;4.90;;
14778;SDS011;7481;53.750;10.570;2024-03-17T19:52:33;7.27;;;4.30;;
14778;SDS011;7481;53.750;10.570;2024-03-17T19:57:14;4.47;;;2.83;;
14778;SDS011;7481;53.750;10.570;2024-03-17T20:01:58;4.27;;;3.43;;
14778;SDS011;7481;53.750;10.570;2024-03-17T20:06:39;5.13;;;3.73;;
14778;SDS011;7481;53.750;10.570;2024-03-17T20:11:19;4.50;;;3.23;;
14778;SDS011;7481;53.750;10.570;2024-03-17T20:16:00;4.33;;;3.10;;
14778;SDS011;7481;53.750;10.570;2024-03-17T20:20:41;4.20;;;2.50;;
14778;SDS011;7481;53.750;10.570;2024-03-17T20:25:43;3.83;;;2.67;;
14778;SDS011;7481;53.750;10.570;2024-03-17T20:30:05;7.43;;;4.60;;
14778;SDS011;7481;53.750;10.570;2024-03-17T20:35:05;37.20;;;19.73;;
14778;SDS011;7481;53.750;10.570;2024-03-17T20:40:01;35.73;;;20.37;;
14778;SDS011;7481;53.750;10.570;2024-03-17T20:44:44;25.90;;;14.90;;
14778;SDS011;7481;53.750;10.570;2024-03-17T20:49:33;10.07;;;7.27;;
14778;SDS011;7481;53.750;10.570;2024-03-17T20:54:13;7.30;;;4.83;;
14778;SDS011;7481;53.750;10.570;2024-03-17T20:59:11;6.57;;;4.70;;
14778;SDS011;7481;53.750;10.570;2024-03-17T21:08:59;17.53;;;8.47;;
14778;SDS011;7481;53.750;10.570;2024-03-17T21:13:39;9.07;;;5.70;;
14778;SDS011;7481;53.750;10.570;2024-03-17T21:18:20;8.03;;;5.77;;
14778;SDS011;7481;53.750;10.570;2024-03-17T21:23:01;6.70;;;3.80;;
14778;SDS011;7481;53.750;10.570;2024-03-17T21:27:42;5.77;;;4.23;;
14778;SDS011;7481;53.750;10.570;2024-03-17T21:32:22;3.43;;;2.87;;
14778;SDS011;7481;53.750;10.570;2024-03-17T21:37:03;4.00;;;3.00;;
14778;SDS011;7481;53.750;10.570;2024-03-17T21:41:43;3.20;;;2.57;;
14778;SDS011;7481;53.750;10.570;2024-03-17T21:46:23;6.30;;;2.57;;
14778;SDS011;7481;53.750;10.570;2024-03-17T21:51:04;3.67;;;2.73;;
14778;SDS011;7481;53.750;10.570;2024-03-17T21:55:53;4.60;;;2.80;;
14778;SDS011;7481;53.750;10.570;2024-03-17T22:00:34;2.90;;;2.60;;
14778;SDS011;7481;53.750;10.570;2024-03-17T22:05:14;3.63;;;3.00;;
14778;SDS011;7481;53.750;10.570;2024-03-17T22:09:54;4.47;;;2.90;;
14778;SDS011;7481;53.750;10.570;2024-03-17T22:14:35;3.97;;;2.50;;
14778;SDS011;7481;53.750;10.570;2024-03-17T22:19:24;2.90;;;2.40;;
14778;SDS011;7481;53.750;10.570;2024-03-17T22:24:04;4.60;;;3.00;;
14778;SDS011;7481;53.750;10.570;2024-03-17T22:28:48;4.23;;;2.60;;
14778;SDS011;7481;53.750;10.570;2024-03-17T22:33:29;3.93;;;2.70;;
14778;SDS011;7481;53.750;10.570;2024-03-17T22:38:10;3.63;;;2.50;;
14778;SDS011;7481;53.750;10.570;2024-03-17T22:43:02;3.53;;;2.20;;
14778;SDS011;7481;53.750;10.570;2024-03-17T22:48:17;3.93;;;2.70;;
14778;SDS011;7481;53.750;10.570;2024-03-17T22:52:33;2.83;;;2.47;;
14778;SDS011;7481;53.750;10.570;2024-03-17T22:57:37;2.93;;;2.13;;
14778;SDS011;7481;53.750;10.570;2024-03-17T23:01:59;3.53;;;2.50;;
14778;SDS011;7481;53.750;10.570;2024-03-17T23:06:58;3.73;;;2.60;;
14778;SDS011;7481;53.750;10.570;2024-03-17T23:11:19;2.90;;;2.43;;
14778;SDS011;7481;53.750;10.570;2024-03-17T23:16:19;3.60;;;2.50;;
14778;SDS011;7481;53.750;10.570;2024-03-17T23:20:41;2.93;;;2.40;;
14778;SDS011;7481;53.750;10.570;2024-03-17T23:25:41;2.50;;;2.20;;
14778;SDS011;7481;53.750;10.570;2024-03-17T23:30:04;2.97;;;2.50;;
14778;SDS011;7481;53.750;10.570;2024-03-17T23:35:07;3.00;;;2.23;;
14778;SDS011;7481;53.750;10.570;2024-03-17T23:39:29;3.20;;;2.40;;
14778;SDS011;7481;53.750;10.570;2024-03-17T23:44:28;2.33;;;2.13;;
14778;SDS011;7481;53.750;10.570;2024-03-17T23:48:51;2.47;;;2.20;;
14778;SDS011;7481;53.750;10.570;2024-03-17T23:53:50;3.10;;;2.43;;
14778;SDS011;7481;53.750;10.570;2024-03-17T23:58:13;2.47;;;2.23;;
